Time;durP1;ratioP1;P1;durP2;ratioP2;P2;SDS_P1;SDS_P2;PMS_P1;PMS_P2;Temp;Humidity;BMP_temperature;BMP_pressure;BME280_temperature;BME280_humidity;BME280_pressure;Samples;Min_cycle;Max_cycle;Signal;HPM_P1;HPM_P2
2021/06/08 00:01:50;;;;;;;;;;;;;;;12.45;85.94;102374.44;5015267;28;1579;-83
2021/06/08 00:04:16;;;;;;;;;;;;;;;12.41;86.71;102372.31;5028010;28;1606;-82
2021/06/08 00:06:42;;;;;;;;;;;;;;;12.36;86.84;102374.41;5030826;28;1638;-83
2021/06/08 00:09:08;;;;;;;;;;;;;;;12.36;86.80;102371.63;5015631;28;1959;-83
2021/06/08 00:11:33;;;;;;;;;;;;;;;12.36;86.84;102379.94;5034973;28;1539;-85
2021/06/08 00:13:58;;;;;;;;;;;;;;;12.35;87.05;102368.03;5040922;28;1889;-83
2021/06/08 00:16:24;;;;;;;;;;;;;;;12.38;87.23;102377.69;5030179;28;1875;-82
2021/06/08 00:18:49;;;;;;;;;;;;;;;12.34;87.10;102374.72;5012307;28;1637;-82
2021/06/08 00:21:14;;;;;;;;;;;;;;;12.32;87.04;102370.63;5031244;28;1649;-82
2021/06/08 00:23:40;;;;;;;;;;;;;;;12.32;87.15;102378.94;5030383;28;1016;-81
2021/06/08 00:26:06;;;;;;;;;;;;;;;12.35;87.50;102375.53;5028455;28;1504;-82
2021/06/08 00:28:31;;;;;;;;;;;;;;;12.33;87.75;102364.78;5029283;28;1606;-83
2021/06/08 00:30:56;;;;;;;;;;;;;;;12.32;87.80;102360.38;5030496;28;750;-82
2021/06/08 00:33:21;;;;;;;;;;;;;;;12.30;88.00;102365.44;5030352;28;1719;-82
2021/06/08 00:35:47;;;;;;;;;;;;;;;12.31;88.39;102367.03;5030461;28;1890;-82
2021/06/08 00:38:12;;;;;;;;;;;;;;;12.33;88.24;102362.00;5029859;28;1194;-82
2021/06/08 00:40:42;;;;;;;;;;;;;;;12.34;88.12;102349.78;5030074;28;1905;-83
2021/06/08 00:43:08;;;;;;;;;;;;;;;12.31;88.07;102363.47;5026887;28;1644;-83
2021/06/08 00:45:33;;;;;;;;;;;;;;;12.23;87.84;102368.66;5029098;28;1153;-83
2021/06/08 00:47:58;;;;;;;;;;;;;;;12.15;88.10;102372.19;5018565;28;1510;-83
2021/06/08 00:50:24;;;;;;;;;;;;;;;12.04;88.58;102370.81;5016672;28;1606;-82
2021/06/08 00:52:51;;;;;;;;;;;;;;;11.93;88.98;102364.72;5011289;28;1335;-82
2021/06/08 00:55:17;;;;;;;;;;;;;;;11.88;89.49;102364.00;5024031;28;1870;-83
2021/06/08 00:57:43;;;;;;;;;;;;;;;11.82;89.60;102364.13;5046992;28;1593;-82
2021/06/08 01:00:09;;;;;;;;;;;;;;;11.80;90.04;102365.56;5012589;28;1677;-83
2021/06/08 01:02:35;;;;;;;;;;;;;;;11.80;90.12;102365.56;5029434;28;1685;-82
2021/06/08 01:05:04;;;;;;;;;;;;;;;11.86;89.88;102358.78;5012432;28;1826;-83
2021/06/08 01:07:32;;;;;;;;;;;;;;;11.96;90.03;102364.09;5029993;28;1284;-83
2021/06/08 01:09:57;;;;;;;;;;;;;;;12.01;89.94;102354.84;5012300;28;1677;-82
2021/06/08 01:12:23;;;;;;;;;;;;;;;12.03;90.02;102364.47;5029930;28;1956;-82
2021/06/08 01:14:49;;;;;;;;;;;;;;;12.06;89.78;102357.47;5009263;28;1874;-82
2021/06/08 01:17:14;;;;;;;;;;;;;;;12.06;89.91;102359.41;5029538;28;1189;-82
2021/06/08 01:19:39;;;;;;;;;;;;;;;12.08;89.83;102365.44;5039294;28;1625;-82
2021/06/08 01:22:05;;;;;;;;;;;;;;;12.09;89.74;102367.09;5048045;28;1700;-83
2021/06/08 01:24:30;;;;;;;;;;;;;;;12.08;89.91;102360.75;5028896;28;1602;-82
2021/06/08 01:26:56;;;;;;;;;;;;;;;12.07;89.75;102363.84;5011571;28;1996;-82
2021/06/08 01:29:23;;;;;;;;;;;;;;;12.10;89.89;102368.75;5029295;28;1138;-82
2021/06/08 01:31:49;;;;;;;;;;;;;;;12.09;90.17;102373.44;5010847;28;1771;-82
2021/06/08 01:34:16;;;;;;;;;;;;;;;12.12;89.81;102369.22;5027729;28;1633;-82
2021/06/08 01:36:42;;;;;;;;;;;;;;;12.15;89.74;102360.31;5028022;28;1953;-83
2021/06/08 01:39:07;;;;;;;;;;;;;;;12.15;89.59;102358.34;5028061;28;1173;-82
2021/06/08 01:41:33;;;;;;;;;;;;;;;12.11;90.08;102351.81;5028671;28;1892;-83
2021/06/08 01:43:59;;;;;;;;;;;;;;;12.09;89.89;102354.06;5028133;28;1550;-82
2021/06/08 01:46:24;;;;;;;;;;;;;;;12.08;90.22;102355.22;5029058;28;1194;-82
2021/06/08 01:48:51;;;;;;;;;;;;;;;12.09;90.09;102354.06;5028733;28;1973;-83
2021/06/08 01:51:36;;;;;;;;;;;;;;;12.05;90.56;102350.31;5026701;28;1629;-83
2021/06/08 01:54:28;;;;;;;;;;;;;;;12.02;90.60;102345.38;5028682;28;967;-82
2021/06/08 01:57:04;;;;;;;;;;;;;;;12.01;90.41;102346.53;5028214;28;1949;-84
2021/06/08 01:59:49;;;;;;;;;;;;;;;12.01;90.75;102346.53;5008212;28;1689;-84
2021/06/08 02:02:35;;;;;;;;;;;;;;;11.98;90.62;102352.72;5018714;28;1956;-82
2021/06/08 02:05:38;;;;;;;;;;;;;;;11.98;90.75;102356.28;5011376;28;1289;-82
2021/06/08 02:08:23;;;;;;;;;;;;;;;11.95;91.09;102356.91;4992362;28;1516;-83
2021/06/08 02:10:53;;;;;;;;;;;;;;;11.96;91.31;102363.28;5016081;28;1618;-84
2021/06/08 02:13:33;;;;;;;;;;;;;;;11.90;91.37;102354.25;5029224;28;1272;-82
2021/06/08 02:16:35;;;;;;;;;;;;;;;11.94;91.32;102355.28;5031138;28;1890;-82
2021/06/08 02:19:02;;;;;;;;;;;;;;;12.00;91.31;102355.97;5027974;28;1194;-83
2021/06/08 02:21:38;;;;;;;;;;;;;;;12.00;91.05;102354.00;5028392;28;1653;-82
2021/06/08 02:24:06;;;;;;;;;;;;;;;11.99;91.18;102357.94;5012709;28;1712;-82
2021/06/08 02:26:33;;;;;;;;;;;;;;;12.00;91.35;102359.53;5010291;28;1846;-83
2021/06/08 02:29:01;;;;;;;;;;;;;;;12.00;91.07;102361.50;5026122;28;1295;-82
2021/06/08 02:31:28;;;;;;;;;;;;;;;12.00;91.45;102364.28;5025975;28;1637;-83
2021/06/08 02:33:55;;;;;;;;;;;;;;;11.97;91.57;102371.28;5009885;28;1751;-82
2021/06/08 02:36:20;;;;;;;;;;;;;;;12.00;91.49;102369.81;5010793;28;1883;-82
2021/06/08 02:38:48;;;;;;;;;;;;;;;11.99;91.60;102363.47;5021532;28;1697;-82
2021/06/08 02:41:14;;;;;;;;;;;;;;;11.99;91.33;102365.41;5050455;28;1916;-82
2021/06/08 02:43:41;;;;;;;;;;;;;;;11.98;91.62;102370.13;5052496;28;896;-82
2021/06/08 02:46:09;;;;;;;;;;;;;;;11.97;91.60;102362.13;5035679;28;1221;-84
2021/06/08 02:48:36;;;;;;;;;;;;;;;11.93;91.56;102364.72;5041392;28;1549;-82
2021/06/08 02:51:03;;;;;;;;;;;;;;;11.90;92.19;102365.31;5031404;28;1248;-82
2021/06/08 02:53:30;;;;;;;;;;;;;;;11.88;92.34;102364.00;5030092;28;1020;-82
2021/06/08 02:55:55;;;;;;;;;;;;;;;11.88;92.04;102364.81;5034742;28;1871;-82
2021/06/08 02:58:22;;;;;;;;;;;;;;;11.89;92.17;102362.84;5031474;28;1688;-82
2021/06/08 03:00:48;;;;;;;;;;;;;;;11.89;92.22;102366.47;5031591;28;1075;-82
2021/06/08 03:03:19;;;;;;;;;;;;;;;11.90;92.21;102364.50;5032612;28;1578;-82
2021/06/08 03:05:59;;;;;;;;;;;;;;;11.91;92.55;102368.94;5014636;28;1652;-82
2021/06/08 03:08:32;;;;;;;;;;;;;;;11.94;92.40;102368.28;5010437;28;1221;-82
2021/06/08 03:11:02;;;;;;;;;;;;;;;11.97;92.28;102373.22;5024363;28;1780;-82
2021/06/08 03:13:28;;;;;;;;;;;;;;;12.01;92.28;102377.81;5030716;28;1621;-82
2021/06/08 03:15:58;;;;;;;;;;;;;;;12.06;92.35;102365.78;5032014;28;1971;-82
2021/06/08 03:18:27;;;;;;;;;;;;;;;12.08;92.33;102363.50;5031721;28;1237;-82
2021/06/08 03:20:58;;;;;;;;;;;;;;;12.09;91.85;102358.78;5022248;28;1682;-82
2021/06/08 03:23:28;;;;;;;;;;;;;;;12.07;91.87;102364.63;5047097;28;1691;-82
2021/06/08 03:25:56;;;;;;;;;;;;;;;12.08;92.13;102368.22;5022891;28;1974;-82
2021/06/08 03:28:25;;;;;;;;;;;;;;;12.07;92.19;102369.38;5036255;28;1570;-82
2021/06/08 03:30:51;;;;;;;;;;;;;;;12.05;91.96;102366.91;5030877;28;1653;-81
2021/06/08 03:33:19;;;;;;;;;;;;;;;12.03;91.93;102367.22;5031085;28;1083;-82
2021/06/08 03:35:45;;;;;;;;;;;;;;;12.03;92.11;102367.22;5044719;28;1967;-82
2021/06/08 03:38:11;;;;;;;;;;;;;;;12.06;92.09;102370.50;5018693;28;1836;-82
2021/06/08 03:40:38;;;;;;;;;;;;;;;12.10;92.39;102371.50;5030280;28;1901;-82
2021/06/08 03:43:04;;;;;;;;;;;;;;;12.12;92.27;102372.00;5031209;28;1231;-82
2021/06/08 03:45:30;;;;;;;;;;;;;;;12.10;92.02;102372.31;5040911;28;1609;-82
2021/06/08 03:47:57;;;;;;;;;;;;;;;12.17;91.84;102374.63;5029491;28;1699;-82
2021/06/08 03:50:26;;;;;;;;;;;;;;;12.25;91.85;102375.81;5029187;28;1522;-82
2021/06/08 03:52:51;;;;;;;;;;;;;;;12.33;91.55;102372.28;5029791;28;1478;-82
2021/06/08 03:55:22;;;;;;;;;;;;;;;12.35;91.56;102373.56;5028223;28;2063;-82
2021/06/08 03:57:52;;;;;;;;;;;;;;;12.39;91.26;102374.59;5028533;28;1673;-82
2021/06/08 04:00:18;;;;;;;;;;;;;;;12.40;91.26;102370.66;5029198;28;1668;-82
2021/06/08 04:02:44;;;;;;;;;;;;;;;12.41;91.14;102365.97;5020908;28;2024;-82
2021/06/08 04:05:10;;;;;;;;;;;;;;;12.36;90.87;102360.56;5031573;28;1562;-83
2021/06/08 04:07:39;;;;;;;;;;;;;;;12.33;91.06;102362.00;5012516;28;1455;-83
2021/06/08 04:10:07;;;;;;;;;;;;;;;12.33;91.42;102358.41;5026379;28;1857;-82
2021/06/08 04:12:33;;;;;;;;;;;;;;;12.41;91.57;102361.22;5029877;28;1147;-82
2021/06/08 04:15:00;;;;;;;;;;;;;;;12.48;90.86;102366.31;5030399;28;1887;-82
2021/06/08 04:17:25;;;;;;;;;;;;;;;12.52;90.70;102356.22;5043005;28;1829;-82
2021/06/08 04:19:51;;;;;;;;;;;;;;;12.60;90.55;102355.44;5050176;28;932;-82
2021/06/08 04:22:33;;;;;;;;;;;;;;;12.72;90.27;102359.56;5041416;28;1696;-82
2021/06/08 04:24:58;;;;;;;;;;;;;;;12.84;89.69;102358.91;5029076;28;1893;-82
2021/06/08 04:27:29;;;;;;;;;;;;;;;12.93;89.66;102360.56;5030907;28;1965;-82
2021/06/08 04:29:55;;;;;;;;;;;;;;;12.97;89.32;102358.78;5029718;28;1475;-82
2021/06/08 04:32:21;;;;;;;;;;;;;;;12.96;88.20;102359.13;5029233;28;1558;-84
2021/06/08 04:34:48;;;;;;;;;;;;;;;12.87;88.31;102367.41;5031637;28;1739;-81
2021/06/08 04:37:13;;;;;;;;;;;;;;;12.84;88.82;102364.47;5033428;28;1890;-82
2021/06/08 04:39:39;;;;;;;;;;;;;;;12.82;89.08;102373.13;5041128;28;1638;-83
2021/06/08 04:42:06;;;;;;;;;;;;;;;12.78;88.88;102363.78;5014846;28;1675;-83
2021/06/08 04:44:32;;;;;;;;;;;;;;;12.68;88.83;102369.63;5031956;28;1267;-82
2021/06/08 04:46:57;;;;;;;;;;;;;;;12.63;89.10;102369.78;5031981;28;1975;-83
2021/06/08 04:49:23;;;;;;;;;;;;;;;12.57;89.18;102367.16;5026497;28;1582;-82
2021/06/08 04:51:48;;;;;;;;;;;;;;;12.52;89.13;102377.56;5012554;28;1693;-85
2021/06/08 04:54:20;;;;;;;;;;;;;;;12.47;89.29;102369.41;5015008;28;1693;-82
2021/06/08 04:56:45;;;;;;;;;;;;;;;12.62;89.46;102376.47;5032868;28;1975;-81
2021/06/08 04:59:16;;;;;;;;;;;;;;;12.85;88.84;102380.78;5029870;28;1644;-83
2021/06/08 05:01:44;;;;;;;;;;;;;;;13.07;88.67;102384.59;5031495;28;1562;-83
2021/06/08 05:04:14;;;;;;;;;;;;;;;13.28;88.18;102384.78;5014428;28;1171;-83
2021/06/08 05:06:43;;;;;;;;;;;;;;;13.43;87.36;102369.66;5030985;28;1692;-83
2021/06/08 05:09:14;;;;;;;;;;;;;;;13.58;86.47;102371.91;5034288;28;1963;-83
2021/06/08 05:11:49;;;;;;;;;;;;;;;13.58;86.08;102377.47;5049994;28;1691;-82
2021/06/08 05:14:16;;;;;;;;;;;;;;;13.58;86.05;102374.69;5034310;28;1164;-83
2021/06/08 05:16:47;;;;;;;;;;;;;;;13.67;85.83;102380.22;5017078;28;1910;-82
2021/06/08 05:19:15;;;;;;;;;;;;;;;13.71;85.41;102378.44;5030127;28;1273;-83
2021/06/08 05:21:45;;;;;;;;;;;;;;;13.72;85.18;102375.34;5009759;28;1642;-82
2021/06/08 05:24:11;;;;;;;;;;;;;;;13.86;85.04;102375.16;5009661;28;1177;-82
2021/06/08 05:26:40;;;;;;;;;;;;;;;14.04;84.19;102378.72;5037158;28;1927;-83
2021/06/08 05:29:06;;;;;;;;;;;;;;;14.32;83.03;102380.28;5049428;28;1162;-81
2021/06/08 05:31:32;;;;;;;;;;;;;;;14.53;82.64;102380.34;5023467;28;1880;-82
2021/06/08 05:33:57;;;;;;;;;;;;;;;14.72;81.10;102379.97;5029984;28;1712;-82
2021/06/08 05:36:28;;;;;;;;;;;;;;;14.72;79.87;102375.22;5030018;28;1901;-81
2021/06/08 05:38:54;;;;;;;;;;;;;;;14.78;79.32;102376.66;5029963;28;1778;-82
2021/06/08 05:41:19;;;;;;;;;;;;;;;14.85;79.73;102374.16;5014784;28;1730;-82
2021/06/08 05:43:45;;;;;;;;;;;;;;;14.71;79.45;102373.59;5028334;28;881;-82
2021/06/08 05:46:11;;;;;;;;;;;;;;;14.77;80.06;102368.66;5032930;28;1841;-82
2021/06/08 05:48:38;;;;;;;;;;;;;;;14.82;79.63;102372.06;5014870;28;1940;-81
2021/06/08 05:51:05;;;;;;;;;;;;;;;14.96;79.87;102374.59;5054993;28;1007;-82
2021/06/08 05:53:31;;;;;;;;;;;;;;;15.13;79.19;102375.66;5055873;28;1070;-82
2021/06/08 05:55:57;;;;;;;;;;;;;;;15.20;78.36;102373.13;5042306;28;1949;-82
2021/06/08 05:58:31;;;;;;;;;;;;;;;15.21;78.57;102380.34;5031165;28;1988;-83
2021/06/08 06:00:58;;;;;;;;;;;;;;;15.28;78.11;102374.22;5027123;28;1242;-82
2021/06/08 06:03:25;;;;;;;;;;;;;;;15.19;77.70;102374.28;5029564;28;1485;-82
2021/06/08 06:05:51;;;;;;;;;;;;;;;15.09;77.90;102374.66;5027791;28;1043;-82
2021/06/08 06:08:17;;;;;;;;;;;;;;;15.19;77.78;102372.34;5012837;28;1202;-81
2021/06/08 06:10:44;;;;;;;;;;;;;;;15.46;77.00;102384.06;5031244;28;1979;-82
2021/06/08 06:13:17;;;;;;;;;;;;;;;15.54;75.90;102383.19;5011270;28;1204;-82
2021/06/08 06:15:45;;;;;;;;;;;;;;;15.42;75.54;102386.72;5026574;28;1902;-81
2021/06/08 06:18:13;;;;;;;;;;;;;;;15.29;76.43;102387.78;5030603;28;1328;-82
2021/06/08 06:20:38;;;;;;;;;;;;;;;15.22;76.37;102385.53;5037997;28;825;-81
2021/06/08 06:23:04;;;;;;;;;;;;;;;15.20;76.77;102387.84;5039089;28;1039;-81
2021/06/08 06:25:29;;;;;;;;;;;;;;;15.39;75.51;102390.16;5045197;28;1865;-82
2021/06/08 06:27:55;;;;;;;;;;;;;;;15.47;75.16;102390.44;5041807;28;1369;-81
2021/06/08 06:30:21;;;;;;;;;;;;;;;15.63;75.36;102393.44;5058664;28;992;-81
2021/06/08 06:32:47;;;;;;;;;;;;;;;15.95;75.01;102386.25;5057036;28;1114;-82
2021/06/08 06:35:13;;;;;;;;;;;;;;;16.30;73.10;102395.06;5050688;28;1902;-82
2021/06/08 06:37:41;;;;;;;;;;;;;;;16.73;72.13;102390.09;5050114;28;1201;-83
2021/06/08 06:40:18;;;;;;;;;;;;;;;17.61;70.42;102381.25;5035200;28;1872;-82
2021/06/08 06:42:51;;;;;;;;;;;;;;;18.67;68.69;102372.47;5028229;28;1171;-82
2021/06/08 06:45:20;;;;;;;;;;;;;;;19.88;65.11;102374.38;5029056;28;1008;-82
2021/06/08 06:47:46;;;;;;;;;;;;;;;21.18;62.07;102368.91;5030865;28;1193;-84
2021/06/08 06:50:13;;;;;;;;;;;;;;;22.02;57.36;102363.06;5030607;28;792;-82
2021/06/08 06:52:39;;;;;;;;;;;;;;;22.88;56.01;102368.63;5029022;28;988;-82
2021/06/08 06:55:08;;;;;;;;;;;;;;;23.18;53.04;102356.34;5037683;28;1916;-82
2021/06/08 06:57:34;;;;;;;;;;;;;;;23.96;53.22;102358.63;5050717;28;1322;-83
2021/06/08 07:00:00;;;;;;;;;;;;;;;24.98;50.08;102365.09;5050970;28;956;-82
2021/06/08 07:02:26;;;;;;;;;;;;;;;25.29;48.07;102369.03;5032511;28;1310;-82
2021/06/08 07:04:54;;;;;;;;;;;;;;;25.42;44.99;102366.56;5050216;28;1031;-82
2021/06/08 07:07:21;;;;;;;;;;;;;;;25.85;45.56;102360.66;5049462;28;1338;-83
2021/06/08 07:09:48;;;;;;;;;;;;;;;26.17;43.71;102365.34;5032352;28;1904;-83
2021/06/08 07:12:18;;;;;;;;;;;;;;;27.01;43.13;102359.31;5031164;28;1814;-82
2021/06/08 07:14:44;;;;;;;;;;;;;;;26.97;41.49;102363.41;5030597;28;1063;-82
2021/06/08 07:17:11;;;;;;;;;;;;;;;26.75;41.64;102372.16;5012617;28;1875;-82
2021/06/08 07:19:37;;;;;;;;;;;;;;;27.36;40.68;102362.19;5030137;28;1000;-82
2021/06/08 07:22:02;;;;;;;;;;;;;;;28.18;39.12;102362.22;5031346;28;826;-82
2021/06/08 07:24:29;;;;;;;;;;;;;;;28.84;37.19;102363.53;5031732;28;1762;-82
2021/06/08 07:26:55;;;;;;;;;;;;;;;28.96;36.34;102360.03;5048408;28;1917;-82
2021/06/08 07:29:20;;;;;;;;;;;;;;;29.94;35.22;102364.50;5048519;28;1908;-81
2021/06/08 07:32:03;;;;;;;;;;;;;;;30.60;33.92;102362.44;5033211;28;1042;-82
2021/06/08 07:34:35;;;;;;;;;;;;;;;31.12;33.32;102363.47;5031938;28;964;-82
2021/06/08 07:37:02;;;;;;;;;;;;;;;30.71;32.76;102365.00;5032908;28;1888;-82
2021/06/08 07:39:54;;;;;;;;;;;;;;;30.25;33.28;102372.69;5015037;28;1300;-82
2021/06/08 07:42:43;;;;;;;;;;;;;;;31.45;33.45;102369.81;5030289;28;1824;-82
2021/06/08 07:45:13;;;;;;;;;;;;;;;32.04;31.01;102363.91;5051894;28;1023;-82
2021/06/08 07:47:39;;;;;;;;;;;;;;;31.61;31.35;102371.00;5051579;28;1272;-81
2021/06/08 07:50:08;;;;;;;;;;;;;;;31.16;31.28;102366.22;5049792;28;786;-83
2021/06/08 07:52:34;;;;;;;;;;;;;;;29.65;33.48;102376.50;5046977;28;1104;-81
2021/06/08 07:55:00;;;;;;;;;;;;;;;28.50;35.66;102365.31;5031932;28;1944;-82
2021/06/08 07:57:26;;;;;;;;;;;;;;;27.54;37.14;102361.94;5032650;28;2003;-82
2021/06/08 07:59:52;;;;;;;;;;;;;;;27.10;38.26;102363.69;5032192;28;1776;-81
2021/06/08 08:02:21;;;;;;;;;;;;;;;27.63;38.22;102365.03;5032182;28;961;-81
2021/06/08 08:04:51;;;;;;;;;;;;;;;28.26;35.26;102358.84;5031332;28;992;-81
2021/06/08 08:07:25;;;;;;;;;;;;;;;28.43;36.36;102359.78;5015021;28;1248;-81
2021/06/08 08:09:51;;;;;;;;;;;;;;;28.73;36.46;102358.03;5032725;28;1920;-82
2021/06/08 08:12:17;;;;;;;;;;;;;;;28.82;36.17;102361.09;5032635;28;1900;-82
2021/06/08 08:14:44;;;;;;;;;;;;;;;28.41;35.82;102361.44;5031675;28;1373;-82
2021/06/08 08:17:14;;;;;;;;;;;;;;;27.82;37.60;102369.22;5022322;28;1916;-81
2021/06/08 08:19:41;;;;;;;;;;;;;;;27.72;37.32;102376.69;5051062;28;877;-81
2021/06/08 08:22:06;;;;;;;;;;;;;;;27.65;37.00;102381.63;5032529;28;1135;-82
2021/06/08 08:24:33;;;;;;;;;;;;;;;27.30;38.33;102369.53;5033312;28;1714;-81
2021/06/08 08:27:01;;;;;;;;;;;;;;;27.55;38.01;102372.84;5048496;28;1897;-82
2021/06/08 08:29:26;;;;;;;;;;;;;;;27.78;37.27;102371.31;5033274;28;1288;-82
2021/06/08 08:31:52;;;;;;;;;;;;;;;28.72;36.64;102367.00;5050746;28;1012;-81
2021/06/08 08:34:17;;;;;;;;;;;;;;;30.56;33.28;102361.75;5048208;28;1872;-81
2021/06/08 08:36:42;;;;;;;;;;;;;;;31.38;32.28;102354.97;5050777;28;1874;-82
2021/06/08 08:39:10;;;;;;;;;;;;;;;31.57;31.98;102359.69;5050322;28;1248;-83
2021/06/08 08:41:36;;;;;;;;;;;;;;;30.71;32.28;102365.00;5035279;28;1896;-82
2021/06/08 08:44:03;;;;;;;;;;;;;;;29.52;35.08;102361.34;5028867;28;814;-81
2021/06/08 08:46:28;;;;;;;;;;;;;;;30.43;33.97;102363.72;5034919;28;905;-82
2021/06/08 08:48:55;;;;;;;;;;;;;;;30.67;32.91;102355.75;5038067;28;1181;-81
2021/06/08 08:51:22;;;;;;;;;;;;;;;30.64;32.86;102360.28;5032725;28;1075;-82
2021/06/08 08:53:49;;;;;;;;;;;;;;;30.85;32.70;102356.06;5030714;28;1920;-83
2021/06/08 08:56:15;;;;;;;;;;;;;;;32.56;30.36;102354.00;5035042;28;1942;-83
2021/06/08 08:58:42;;;;;;;;;;;;;;;33.67;28.28;102351.16;5048454;28;1197;-82
2021/06/08 09:01:07;;;;;;;;;;;;;;;34.88;26.83;102337.88;5048777;28;1007;-82
2021/06/08 09:03:33;;;;;;;;;;;;;;;35.63;25.68;102340.06;5048467;28;1015;-82
2021/06/08 09:06:00;;;;;;;;;;;;;;;35.92;25.95;102341.53;5049477;28;864;-83
2021/06/08 09:08:26;;;;;;;;;;;;;;;36.19;24.59;102331.16;5047528;28;1766;-82
2021/06/08 09:10:53;;;;;;;;;;;;;;;36.94;24.27;102326.41;5018381;28;1916;-82
2021/06/08 09:13:19;;;;;;;;;;;;;;;36.71;24.31;102323.13;4998025;28;1181;-83
2021/06/08 09:15:45;;;;;;;;;;;;;;;36.88;24.23;102323.44;4998663;28;1976;-82
2021/06/08 09:18:11;;;;;;;;;;;;;;;37.44;23.92;102324.41;5007659;28;1205;-83
2021/06/08 09:20:36;;;;;;;;;;;;;;;37.60;23.38;102322.28;5007537;28;1758;-82
2021/06/08 09:23:04;;;;;;;;;;;;;;;36.03;22.90;102327.44;5022619;28;1901;-82
2021/06/08 09:25:50;;;;;;;;;;;;;;;35.19;23.33;102331.91;5029868;28;2424;-82
2021/06/08 09:28:16;;;;;;;;;;;;;;;35.77;22.85;102330.00;5045967;28;1158;-82
2021/06/08 09:30:42;;;;;;;;;;;;;;;36.81;22.95;102324.63;5046810;28;1004;-82
2021/06/08 09:33:17;;;;;;;;;;;;;;;37.40;22.48;102309.44;5045808;28;861;-84
2021/06/08 09:35:49;;;;;;;;;;;;;;;38.19;21.76;102319.25;5042609;28;1979;-82
2021/06/08 09:38:14;;;;;;;;;;;;;;;38.82;20.01;102306.34;5027447;28;1218;-82
2021/06/08 09:40:41;;;;;;;;;;;;;;;38.45;22.52;102309.06;5028012;28;1952;-82
2021/06/08 09:43:09;;;;;;;;;;;;;;;38.52;21.81;102305.72;5027660;28;861;-82
2021/06/08 09:45:46;;;;;;;;;;;;;;;38.59;21.09;102308.22;5026464;28;810;-82
2021/06/08 09:48:14;;;;;;;;;;;;;;;37.88;18.21;102299.69;5025414;28;1178;-81
2021/06/08 09:50:41;;;;;;;;;;;;;;;37.29;19.55;102306.41;5029385;28;1905;-81
2021/06/08 09:53:17;;;;;;;;;;;;;;;37.58;20.47;102299.75;5032766;28;1876;-81
2021/06/08 09:55:49;;;;;;;;;;;;;;;38.16;21.18;102302.19;5026266;28;1951;-81
2021/06/08 09:58:15;;;;;;;;;;;;;;;38.81;21.91;102312.63;5044400;28;1161;-81
2021/06/08 10:00:40;;;;;;;;;;;;;;;39.19;20.53;102305.63;5044817;28;1048;-82
2021/06/08 10:03:05;;;;;;;;;;;;;;;39.26;21.16;102299.41;5044611;28;1007;-82
2021/06/08 10:05:31;;;;;;;;;;;;;;;39.52;20.90;102300.66;5025607;28;1873;-81
2021/06/08 10:08:00;;;;;;;;;;;;;;;39.81;19.39;102297.41;5006896;28;1272;-82
2021/06/08 10:10:44;;;;;;;;;;;;;;;39.51;20.98;102299.88;5026677;28;2046;-82
2021/06/08 10:13:18;;;;;;;;;;;;;;;40.36;19.79;102294.53;5027011;28;1972;-81
2021/06/08 10:16:08;;;;;;;;;;;;;;;40.93;18.72;102289.66;5028182;28;1973;-82
2021/06/08 10:18:45;;;;;;;;;;;;;;;40.76;17.95;102295.41;5045823;28;1173;-82
2021/06/08 10:21:11;;;;;;;;;;;;;;;40.73;18.83;102294.34;5047952;28;900;-82
2021/06/08 10:23:37;;;;;;;;;;;;;;;40.21;18.92;102294.72;5026070;28;883;-81
2021/06/08 10:26:10;;;;;;;;;;;;;;;39.63;19.81;102297.84;5034747;28;1960;-82
2021/06/08 10:28:36;;;;;;;;;;;;;;;39.61;19.28;102283.91;5025322;28;1205;-82
2021/06/08 10:31:02;;;;;;;;;;;;;;;39.90;18.93;102295.63;5025102;28;1012;-81
2021/06/08 10:33:28;;;;;;;;;;;;;;;40.21;18.69;102286.81;5024599;28;876;-82
2021/06/08 10:35:55;;;;;;;;;;;;;;;39.91;19.38;102285.66;5024513;28;972;-81
2021/06/08 10:38:21;;;;;;;;;;;;;;;39.97;19.23;102287.25;5025064;28;1188;-82
2021/06/08 10:40:51;;;;;;;;;;;;;;;40.15;18.07;102276.59;5031798;28;2024;-82
2021/06/08 10:43:26;;;;;;;;;;;;;;;39.68;19.81;102282.66;5030803;28;1718;-82
2021/06/08 10:45:56;;;;;;;;;;;;;;;39.92;19.37;102287.22;5023720;28;1902;-83
2021/06/08 10:48:41;;;;;;;;;;;;;;;40.66;17.94;102286.19;5024126;28;1340;-83
2021/06/08 10:51:18;;;;;;;;;;;;;;;40.75;18.41;102290.94;5024928;28;869;-82
2021/06/08 10:53:47;;;;;;;;;;;;;;;40.79;18.65;102285.69;5018227;28;3165;-82
2021/06/08 10:56:33;;;;;;;;;;;;;;;40.84;19.89;102284.94;5015180;28;1865;-81
2021/06/08 10:59:08;;;;;;;;;;;;;;;40.89;18.57;102284.13;5012056;28;2782;-79
2021/06/08 11:01:34;;;;;;;;;;;;;;;40.89;18.06;102280.44;5007318;28;871;-81
2021/06/08 11:04:01;;;;;;;;;;;;;;;40.45;18.76;102287.72;5007687;28;924;-81
2021/06/08 11:06:50;;;;;;;;;;;;;;;40.63;18.39;102283.53;4999038;28;1938;-81
2021/06/08 11:09:17;;;;;;;;;;;;;;;41.59;17.63;102284.34;5025984;28;1359;-82
2021/06/08 11:12:02;;;;;;;;;;;;;;;41.37;18.03;102285.16;5026621;28;1813;-81
2021/06/08 11:17:17;;;;;;;;;;;;;;;40.29;18.10;102287.13;5028145;28;1007;-80
2021/06/08 11:20:00;;;;;;;;;;;;;;;37.87;18.86;102301.00;5019670;28;1175;-81
2021/06/08 11:22:34;;;;;;;;;;;;;;;37.96;21.74;102300.06;5026201;28;2101;-80
2021/06/08 11:25:04;;;;;;;;;;;;;;;39.33;20.02;102288.69;5026546;28;1958;-80
2021/06/08 11:28:05;;;;;;;;;;;;;;;38.19;20.95;102290.44;5026020;28;1957;-80
2021/06/08 11:30:40;;;;;;;;;;;;;;;38.96;20.19;102286.53;5027228;28;893;-81
2021/06/08 11:33:09;;;;;;;;;;;;;;;36.32;23.02;102295.16;5026753;28;817;-80
2021/06/08 11:35:42;;;;;;;;;;;;;;;34.56;25.31;102303.59;5027118;28;1853;-79
2021/06/08 11:38:25;;;;;;;;;;;;;;;36.36;23.13;102286.34;5026304;28;1288;-80
2021/06/08 11:41:01;;;;;;;;;;;;;;;37.92;23.29;102282.19;5025841;28;1754;-80
2021/06/08 11:43:29;;;;;;;;;;;;;;;39.08;20.02;102271.69;5025597;28;1151;-79
2021/06/08 11:46:04;;;;;;;;;;;;;;;38.99;20.82;102282.59;5024891;28;1950;-80
2021/06/08 11:48:38;;;;;;;;;;;;;;;38.90;20.44;102272.03;5025565;28;1864;-80
2021/06/08 11:51:16;;;;;;;;;;;;;;;39.00;20.47;102279.22;5026130;28;971;-80
2021/06/08 11:54:01;;;;;;;;;;;;;;;37.57;20.88;102269.38;5027344;28;817;-79
2021/06/08 11:56:52;;;;;;;;;;;;;;;39.05;21.21;102263.28;5025372;28;1778;-80
2021/06/08 11:59:24;;;;;;;;;;;;;;;37.50;22.48;102277.63;5026392;28;1821;-79
2021/06/08 12:01:56;;;;;;;;;;;;;;;35.48;24.34;102273.16;5026163;28;864;-81
2021/06/08 12:04:22;;;;;;;;;;;;;;;33.28;27.96;102284.81;5023599;28;1793;-80
2021/06/08 12:07:07;;;;;;;;;;;;;;;31.35;31.06;102291.03;5018656;28;1890;-82
2021/06/08 12:09:43;;;;;;;;;;;;;;;30.40;33.55;102287.69;5022753;28;1660;-83
2021/06/08 12:12:11;;;;;;;;;;;;;;;31.10;32.05;102281.22;5039679;28;1841;-82
2021/06/08 12:14:46;;;;;;;;;;;;;;;30.52;32.60;102286.94;5027969;28;862;-82
2021/06/08 12:17:12;;;;;;;;;;;;;;;29.18;35.17;102292.19;5028175;28;1237;-82
2021/06/08 12:19:37;;;;;;;;;;;;;;;28.70;36.85;102290.72;5027789;28;887;-82
2021/06/08 12:22:21;;;;;;;;;;;;;;;27.89;37.42;102284.00;5029219;28;1876;-82
2021/06/08 12:25:07;;;;;;;;;;;;;;;28.74;37.33;102287.78;5030164;28;1040;-82
2021/06/08 12:27:44;;;;;;;;;;;;;;;32.48;32.21;102266.09;5021938;28;2018;-82
2021/06/08 12:30:16;;;;;;;;;;;;;;;35.15;27.14;102257.47;5010810;28;2588;-83
2021/06/08 12:32:42;;;;;;;;;;;;;;;36.96;24.82;102251.88;5027661;28;1726;-80
2021/06/08 12:35:42;;;;;;;;;;;;;;;37.91;23.68;102263.31;5026762;28;1003;-81
2021/06/08 12:38:22;;;;;;;;;;;;;;;38.55;21.77;102256.50;5025833;28;1186;-80
2021/06/08 12:41:23;;;;;;;;;;;;;;;38.96;20.53;102244.03;5026747;28;1806;-81
2021/06/08 12:43:52;;;;;;;;;;;;;;;38.63;21.42;102245.31;4994031;28;1518;-81
2021/06/08 12:46:29;;;;;;;;;;;;;;;38.86;21.32;102248.41;5025852;28;1898;-80
2021/06/08 12:49:00;;;;;;;;;;;;;;;38.41;22.04;102251.59;5024210;28;1747;-80
2021/06/08 12:51:31;;;;;;;;;;;;;;;38.51;21.15;102241.47;5025869;28;1007;-79
2021/06/08 12:53:56;;;;;;;;;;;;;;;38.10;22.34;102243.63;5025959;28;818;-80
2021/06/08 12:56:22;;;;;;;;;;;;;;;37.96;22.88;102236.66;5025732;28;1952;-81
2021/06/08 12:58:48;;;;;;;;;;;;;;;38.05;23.01;102241.47;5024677;28;2569;-80
2021/06/08 13:01:13;;;;;;;;;;;;;;;38.21;23.08;102240.91;5026624;28;980;-82
2021/06/08 13:03:41;;;;;;;;;;;;;;;37.74;23.80;102234.25;5025488;28;1948;-80